sensor_id;sensor_type;location;lat;lon;timestamp;pressure;altitude;pressure_sealevel;temperature;humidity
77725;BME280;66892;53.236;6.550;2023-06-10T00:00:15;101882.00;;;16.08;67.05
77725;BME280;66892;53.236;6.550;2023-06-10T00:02:42;101887.41;;;16.02;66.94
77725;BME280;66892;53.236;6.550;2023-06-10T00:05:10;101883.94;;;15.92;67.80
77725;BME280;66892;53.236;6.550;2023-06-10T00:07:36;101881.28;;;15.92;67.49
77725;BME280;66892;53.236;6.550;2023-06-10T00:10:04;101890.19;;;15.87;67.91
77725;BME280;66892;53.236;6.550;2023-06-10T00:12:31;101894.66;;;15.85;67.58
77725;BME280;66892;53.236;6.550;2023-06-10T00:15:03;101899.19;;;15.70;68.43
77725;BME280;66892;53.236;6.550;2023-06-10T00:17:29;101890.38;;;15.62;68.72
77725;BME280;66892;53.236;6.550;2023-06-10T00:19:55;101893.06;;;15.58;68.75
77725;BME280;66892;53.236;6.550;2023-06-10T00:22:22;101898.47;;;15.53;68.83
77725;BME280;66892;53.236;6.550;2023-06-10T00:24:51;101887.81;;;15.50;68.72
77725;BME280;66892;53.236;6.550;2023-06-10T00:27:17;101897.59;;;15.48;68.99
77725;BME280;66892;53.236;6.550;2023-06-10T00:29:43;101897.59;;;15.47;68.96
77725;BME280;66892;53.236;6.550;2023-06-10T00:32:09;101896.72;;;15.42;69.28
77725;BME280;66892;53.236;6.550;2023-06-10T00:34:35;101899.41;;;15.36;69.60
77725;BME280;66892;53.236;6.550;2023-06-10T00:37:02;101891.44;;;15.32;69.24
77725;BME280;66892;53.236;6.550;2023-06-10T00:39:29;101899.38;;;15.39;69.22
77725;BME280;66892;53.236;6.550;2023-06-10T00:41:55;101892.31;;;15.36;69.56
77725;BME280;66892;53.236;6.550;2023-06-10T00:44:21;101893.22;;;15.32;69.33
77725;BME280;66892;53.236;6.550;2023-06-10T00:46:47;101894.09;;;15.34;69.18
77725;BME280;66892;53.236;6.550;2023-06-10T00:49:17;101904.78;;;15.29;69.36
77725;BME280;66892;53.236;6.550;2023-06-10T00:51:43;101900.31;;;15.31;69.37
77725;BME280;66892;53.236;6.550;2023-06-10T00:54:09;101907.41;;;15.37;69.12
77725;BME280;66892;53.236;6.550;2023-06-10T00:56:36;101903.00;;;15.35;68.81
77725;BME280;66892;53.236;6.550;2023-06-10T00:59:02;101899.47;;;15.31;68.14
77725;BME280;66892;53.236;6.550;2023-06-10T01:01:28;101896.81;;;15.26;68.50
77725;BME280;66892;53.236;6.550;2023-06-10T01:03:55;101895.97;;;15.20;68.30
77725;BME280;66892;53.236;6.550;2023-06-10T01:06:31;101896.91;;;15.11;69.05
77725;BME280;66892;53.236;6.550;2023-06-10T01:09:02;101896.00;;;15.11;68.91
77725;BME280;66892;53.236;6.550;2023-06-10T01:11:38;101891.59;;;15.08;68.98
77725;BME280;66892;53.236;6.550;2023-06-10T01:14:06;101896.03;;;15.05;69.22
77725;BME280;66892;53.236;6.550;2023-06-10T01:16:33;101891.63;;;14.96;68.81
77725;BME280;66892;53.236;6.550;2023-06-10T01:19:01;101892.53;;;14.95;69.23
77725;BME280;66892;53.236;6.550;2023-06-10T01:21:29;101900.53;;;14.88;69.40
77725;BME280;66892;53.236;6.550;2023-06-10T01:23:56;101905.03;;;14.78;69.60
77725;BME280;66892;53.236;6.550;2023-06-10T01:26:26;101914.78;;;14.85;69.29
77725;BME280;66892;53.236;6.550;2023-06-10T01:28:57;101902.31;;;14.92;68.57
77725;BME280;66892;53.236;6.550;2023-06-10T01:31:31;101903.22;;;14.85;69.07
77725;BME280;66892;53.236;6.550;2023-06-10T01:34:00;101905.94;;;14.80;69.37
77725;BME280;66892;53.236;6.550;2023-06-10T01:36:30;101906.81;;;14.74;68.89
77725;BME280;66892;53.236;6.550;2023-06-10T01:38:58;101905.94;;;14.71;68.95
77725;BME280;66892;53.236;6.550;2023-06-10T01:41:25;101910.38;;;14.75;68.76
77725;BME280;66892;53.236;6.550;2023-06-10T01:43:52;101905.94;;;14.72;69.31
77725;BME280;66892;53.236;6.550;2023-06-10T01:46:19;101900.63;;;14.66;68.77
77725;BME280;66892;53.236;6.550;2023-06-10T01:48:47;101913.06;;;14.61;69.50
77725;BME280;66892;53.236;6.550;2023-06-10T01:51:13;101913.06;;;14.58;69.64
77725;BME280;66892;53.236;6.550;2023-06-10T01:53:40;101916.63;;;14.51;70.31
77725;BME280;66892;53.236;6.550;2023-06-10T01:56:06;101917.53;;;14.52;70.35
77725;BME280;66892;53.236;6.550;2023-06-10T01:58:32;101922.88;;;14.41;70.47
77725;BME280;66892;53.236;6.550;2023-06-10T02:00:58;101919.34;;;14.44;70.88
77725;BME280;66892;53.236;6.550;2023-06-10T02:03:24;101922.88;;;14.37;71.17
77725;BME280;66892;53.236;6.550;2023-06-10T02:05:50;101920.25;;;14.35;71.69
77725;BME280;66892;53.236;6.550;2023-06-10T02:08:16;101916.66;;;14.24;71.87
77725;BME280;66892;53.236;6.550;2023-06-10T02:10:43;101914.00;;;14.24;72.01
77725;BME280;66892;53.236;6.550;2023-06-10T02:13:09;101915.78;;;14.13;72.90
77725;BME280;66892;53.236;6.550;2023-06-10T02:15:35;101910.47;;;14.07;73.47
77725;BME280;66892;53.236;6.550;2023-06-10T02:18:02;101913.13;;;14.04;73.33
77725;BME280;66892;53.236;6.550;2023-06-10T02:20:28;101912.25;;;13.97;74.22
77725;BME280;66892;53.236;6.550;2023-06-10T02:22:54;101914.91;;;13.84;74.46
77725;BME280;66892;53.236;6.550;2023-06-10T02:25:20;101916.69;;;13.77;74.99
77725;BME280;66892;53.236;6.550;2023-06-10T02:27:47;101926.44;;;13.77;75.68
77725;BME280;66892;53.236;6.550;2023-06-10T02:30:14;101925.53;;;13.73;75.94
77725;BME280;66892;53.236;6.550;2023-06-10T02:32:40;101925.53;;;13.71;75.93
77725;BME280;66892;53.236;6.550;2023-06-10T02:35:07;101923.75;;;13.64;76.55
77725;BME280;66892;53.236;6.550;2023-06-10T02:37:33;101918.41;;;13.58;77.14
77725;BME280;66892;53.236;6.550;2023-06-10T02:39:59;101923.72;;;13.51;78.00
77725;BME280;66892;53.236;6.550;2023-06-10T02:42:25;101921.94;;;13.50;77.66
77725;BME280;66892;53.236;6.550;2023-06-10T02:44:52;101914.81;;;13.34;78.54
77725;BME280;66892;53.236;6.550;2023-06-10T02:47:18;101929.84;;;13.27;79.88
77725;BME280;66892;53.236;6.550;2023-06-10T02:49:44;101929.88;;;13.26;79.80
77725;BME280;66892;53.236;6.550;2023-06-10T02:52:10;101923.66;;;13.27;80.05
77725;BME280;66892;53.236;6.550;2023-06-10T02:54:37;101914.78;;;13.26;80.24
77725;BME280;66892;53.236;6.550;2023-06-10T02:57:03;101905.09;;;13.31;80.68
77725;BME280;66892;53.236;6.550;2023-06-10T02:59:29;101913.06;;;13.31;80.62
77725;BME280;66892;53.236;6.550;2023-06-10T03:01:57;101922.75;;;13.26;81.17
77725;BME280;66892;53.236;6.550;2023-06-10T03:04:23;101920.16;;;13.29;81.59
77725;BME280;66892;53.236;6.550;2023-06-10T03:06:51;101921.91;;;13.26;82.61
77725;BME280;66892;53.236;6.550;2023-06-10T03:09:17;101922.75;;;13.20;82.95
77725;BME280;66892;53.236;6.550;2023-06-10T03:11:43;101915.72;;;13.28;83.62
77725;BME280;66892;53.236;6.550;2023-06-10T03:14:09;101920.13;;;13.34;83.82
77725;BME280;66892;53.236;6.550;2023-06-10T03:16:35;101913.94;;;13.27;84.67
77725;BME280;66892;53.236;6.550;2023-06-10T03:19:02;101924.56;;;13.27;85.21
77725;BME280;66892;53.236;6.550;2023-06-10T03:21:28;101930.78;;;13.29;85.76
77725;BME280;66892;53.236;6.550;2023-06-10T03:23:54;101921.00;;;13.30;85.82
77725;BME280;66892;53.236;6.550;2023-06-10T03:26:20;101930.75;;;13.28;86.69
77725;BME280;66892;53.236;6.550;2023-06-10T03:28:47;101937.84;;;13.26;87.27
77725;BME280;66892;53.236;6.550;2023-06-10T03:31:14;101943.16;;;13.26;87.67
77725;BME280;66892;53.236;6.550;2023-06-10T03:33:42;101947.56;;;13.22;88.27
77725;BME280;66892;53.236;6.550;2023-06-10T03:36:09;101945.81;;;13.27;88.21
77725;BME280;66892;53.236;6.550;2023-06-10T03:38:36;101948.50;;;13.32;88.31
77725;BME280;66892;53.236;6.550;2023-06-10T03:41:02;101947.56;;;13.30;89.18
77725;BME280;66892;53.236;6.550;2023-06-10T03:43:29;101945.81;;;13.29;89.53
77725;BME280;66892;53.236;6.550;2023-06-10T03:45:57;101941.38;;;13.22;89.44
77725;BME280;66892;53.236;6.550;2023-06-10T03:48:23;101951.09;;;13.24;90.44
77725;BME280;66892;53.236;6.550;2023-06-10T03:50:49;101951.13;;;13.23;90.70
77725;BME280;66892;53.236;6.550;2023-06-10T03:53:18;101962.59;;;13.20;90.37
77725;BME280;66892;53.236;6.550;2023-06-10T03:55:44;101956.38;;;13.16;90.78
77725;BME280;66892;53.236;6.550;2023-06-10T03:58:10;101961.69;;;13.16;91.89
77725;BME280;66892;53.236;6.550;2023-06-10T04:00:39;101967.00;;;13.09;91.51
77725;BME280;66892;53.236;6.550;2023-06-10T04:03:07;101958.97;;;13.00;92.15
77725;BME280;66892;53.236;6.550;2023-06-10T04:05:35;101958.03;;;12.95;92.55
77725;BME280;66892;53.236;6.550;2023-06-10T04:08:01;101962.47;;;12.96;93.13
77725;BME280;66892;53.236;6.550;2023-06-10T04:10:28;101950.97;;;12.97;92.89
77725;BME280;66892;53.236;6.550;2023-06-10T04:12:55;101953.56;;;12.91;93.02
77725;BME280;66892;53.236;6.550;2023-06-10T04:15:21;101954.47;;;12.87;93.20
77725;BME280;66892;53.236;6.550;2023-06-10T04:17:47;101956.25;;;12.89;93.41
77725;BME280;66892;53.236;6.550;2023-06-10T04:20:15;101961.56;;;12.92;93.79
77725;BME280;66892;53.236;6.550;2023-06-10T04:22:41;101954.50;;;12.97;93.35
77725;BME280;66892;53.236;6.550;2023-06-10T04:25:08;101948.31;;;12.97;94.13
77725;BME280;66892;53.236;6.550;2023-06-10T04:27:36;101953.59;;;12.95;94.18
77725;BME280;66892;53.236;6.550;2023-06-10T04:30:03;101954.50;;;12.96;94.39
77725;BME280;66892;53.236;6.550;2023-06-10T04:32:30;101956.28;;;12.97;93.99
77725;BME280;66892;53.236;6.550;2023-06-10T04:34:56;101966.00;;;12.98;94.26
77725;BME280;66892;53.236;6.550;2023-06-10T04:37:22;101959.81;;;13.00;94.53
77725;BME280;66892;53.236;6.550;2023-06-10T04:39:48;101967.81;;;13.08;95.26
77725;BME280;66892;53.236;6.550;2023-06-10T04:42:14;101960.78;;;13.11;95.62
77725;BME280;66892;53.236;6.550;2023-06-10T04:44:42;101967.00;;;13.15;95.84
77725;BME280;66892;53.236;6.550;2023-06-10T04:47:08;101965.25;;;13.26;96.10
77725;BME280;66892;53.236;6.550;2023-06-10T04:49:34;101963.53;;;13.37;95.74
77725;BME280;66892;53.236;6.550;2023-06-10T04:52:01;101966.22;;;13.43;95.97
77725;BME280;66892;53.236;6.550;2023-06-10T04:54:29;101963.59;;;13.48;95.90
77725;BME280;66892;53.236;6.550;2023-06-10T04:56:56;101963.59;;;13.54;95.56
77725;BME280;66892;53.236;6.550;2023-06-10T04:59:22;101965.41;;;13.61;95.00
77725;BME280;66892;53.236;6.550;2023-06-10T05:01:49;101971.59;;;13.69;95.04
77725;BME280;66892;53.236;6.550;2023-06-10T05:04:15;101976.97;;;14.26;92.67
77725;BME280;66892;53.236;6.550;2023-06-10T05:06:42;101973.06;;;15.55;86.32
77725;BME280;66892;53.236;6.550;2023-06-10T05:09:09;101971.41;;;16.54;80.79
77725;BME280;66892;53.236;6.550;2023-06-10T05:11:35;101968.13;;;17.13;77.49
77725;BME280;66892;53.236;6.550;2023-06-10T05:14:01;101978.06;;;17.69;74.54
77725;BME280;66892;53.236;6.550;2023-06-10T05:16:27;101976.47;;;18.16;71.86
77725;BME280;66892;53.236;6.550;2023-06-10T05:18:55;101967.03;;;18.44;70.38
77725;BME280;66892;53.236;6.550;2023-06-10T05:21:21;101975.53;;;18.70;69.42
77725;BME280;66892;53.236;6.550;2023-06-10T05:23:47;101964.38;;;18.93;67.65
77725;BME280;66892;53.236;6.550;2023-06-10T05:26:13;101965.41;;;19.29;66.41
77725;BME280;66892;53.236;6.550;2023-06-10T05:28:40;101974.88;;;19.46;65.09
77725;BME280;66892;53.236;6.550;2023-06-10T05:31:06;101964.00;;;19.54;64.57
77725;BME280;66892;53.236;6.550;2023-06-10T05:33:32;101967.28;;;19.65;64.25
77725;BME280;66892;53.236;6.550;2023-06-10T05:35:59;101964.72;;;19.99;63.44
77725;BME280;66892;53.236;6.550;2023-06-10T05:38:25;101967.13;;;20.46;62.00
77725;BME280;66892;53.236;6.550;2023-06-10T05:40:51;101959.16;;;21.07;60.06
77725;BME280;66892;53.236;6.550;2023-06-10T05:43:17;101973.66;;;21.02;58.85
77725;BME280;66892;53.236;6.550;2023-06-10T05:45:43;101969.13;;;21.03;58.98
77725;BME280;66892;53.236;6.550;2023-06-10T05:48:09;101969.19;;;21.01;58.80
77725;BME280;66892;53.236;6.550;2023-06-10T05:50:35;101973.44;;;21.10;59.31
77725;BME280;66892;53.236;6.550;2023-06-10T05:53:05;101966.19;;;21.43;57.43
77725;BME280;66892;53.236;6.550;2023-06-10T05:55:40;101966.50;;;21.32;57.72
77725;BME280;66892;53.236;6.550;2023-06-10T05:58:06;101973.63;;;21.35;57.48
77725;BME280;66892;53.236;6.550;2023-06-10T06:00:32;101962.34;;;21.79;56.33
77725;BME280;66892;53.236;6.550;2023-06-10T06:02:58;101969.63;;;22.05;55.05
77725;BME280;66892;53.236;6.550;2023-06-10T06:05:24;101968.16;;;21.95;55.29
77725;BME280;66892;53.236;6.550;2023-06-10T06:07:50;101973.13;;;22.07;54.59
77725;BME280;66892;53.236;6.550;2023-06-10T06:10:18;101975.63;;;21.85;54.93
77725;BME280;66892;53.236;6.550;2023-06-10T06:12:44;101970.88;;;21.93;54.66
77725;BME280;66892;53.236;6.550;2023-06-10T06:15:11;101971.44;;;21.75;54.96
77725;BME280;66892;53.236;6.550;2023-06-10T06:17:37;101959.72;;;21.48;55.51
77725;BME280;66892;53.236;6.550;2023-06-10T06:20:04;101965.59;;;22.18;54.24
77725;BME280;66892;53.236;6.550;2023-06-10T06:22:30;101968.63;;;22.60;52.49
77725;BME280;66892;53.236;6.550;2023-06-10T06:24:56;101961.25;;;22.67;51.85
77725;BME280;66892;53.236;6.550;2023-06-10T06:27:23;101959.13;;;22.99;51.44
77725;BME280;66892;53.236;6.550;2023-06-10T06:29:49;101960.09;;;23.45;49.99
77725;BME280;66892;53.236;6.550;2023-06-10T06:32:16;101959.06;;;23.49;49.76
77725;BME280;66892;53.236;6.550;2023-06-10T06:34:42;101961.38;;;23.58;49.06
77725;BME280;66892;53.236;6.550;2023-06-10T06:37:08;101954.66;;;23.46;49.24
77725;BME280;66892;53.236;6.550;2023-06-10T06:39:34;101962.88;;;23.88;47.47
77725;BME280;66892;53.236;6.550;2023-06-10T06:42:00;101957.00;;;23.99;47.45
77725;BME280;66892;53.236;6.550;2023-06-10T06:44:27;101955.91;;;24.04;47.14
77725;BME280;66892;53.236;6.550;2023-06-10T06:46:53;101953.69;;;23.92;47.02
77725;BME280;66892;53.236;6.550;2023-06-10T06:49:19;101962.00;;;23.88;46.59
77725;BME280;66892;53.236;6.550;2023-06-10T06:51:45;101951.88;;;24.14;46.71
77725;BME280;66892;53.236;6.550;2023-06-10T06:54:11;101954.50;;;24.38;45.91
77725;BME280;66892;53.236;6.550;2023-06-10T06:56:37;101957.44;;;24.94;44.88
77725;BME280;66892;53.236;6.550;2023-06-10T06:59:04;101960.88;;;24.77;43.96
77725;BME280;66892;53.236;6.550;2023-06-10T07:01:33;101958.13;;;25.17;43.63
77725;BME280;66892;53.236;6.550;2023-06-10T07:03:59;101967.81;;;25.23;43.15
77725;BME280;66892;53.236;6.550;2023-06-10T07:06:25;101961.00;;;25.53;42.99
77725;BME280;66892;53.236;6.550;2023-06-10T07:08:52;101972.41;;;25.97;41.72
77725;BME280;66892;53.236;6.550;2023-06-10T07:11:18;101969.47;;;25.83;41.76
77725;BME280;66892;53.236;6.550;2023-06-10T07:13:44;101964.72;;;25.69;42.08
77725;BME280;66892;53.236;6.550;2023-06-10T07:16:10;101976.09;;;25.59;42.39
77725;BME280;66892;53.236;6.550;2023-06-10T07:18:37;101971.84;;;26.08;41.69
77725;BME280;66892;53.236;6.550;2023-06-10T07:21:03;101977.56;;;26.20;41.68
77725;BME280;66892;53.236;6.550;2023-06-10T07:23:29;101974.25;;;26.14;41.68
77725;BME280;66892;53.236;6.550;2023-06-10T07:25:55;101976.88;;;26.34;41.01
77725;BME280;66892;53.236;6.550;2023-06-10T07:28:21;101980.66;;;26.49;41.19
77725;BME280;66892;53.236;6.550;2023-06-10T07:30:48;101988.69;;;27.19;40.05
77725;BME280;66892;53.236;6.550;2023-06-10T07:33:14;101985.19;;;27.81;37.72
77725;BME280;66892;53.236;6.550;2023-06-10T07:35:41;101980.03;;;27.61;37.89
77725;BME280;66892;53.236;6.550;2023-06-10T07:38:08;101983.81;;;27.41;37.29
77725;BME280;66892;53.236;6.550;2023-06-10T07:40:34;101987.28;;;26.95;37.74
77725;BME280;66892;53.236;6.550;2023-06-10T07:43:00;101984.72;;;26.57;38.95
77725;BME280;66892;53.236;6.550;2023-06-10T07:45:26;101994.09;;;26.14;39.92
77725;BME280;66892;53.236;6.550;2023-06-10T07:47:53;101985.09;;;26.50;40.09
77725;BME280;66892;53.236;6.550;2023-06-10T07:50:19;101990.03;;;27.10;38.45
77725;BME280;66892;53.236;6.550;2023-06-10T07:52:46;101986.19;;;27.80;36.74
77725;BME280;66892;53.236;6.550;2023-06-10T07:55:12;101983.47;;;27.64;37.15
77725;BME280;66892;53.236;6.550;2023-06-10T07:57:38;101988.44;;;27.39;38.19
77725;BME280;66892;53.236;6.550;2023-06-10T08:00:06;101983.41;;;27.49;37.86
77725;BME280;66892;53.236;6.550;2023-06-10T08:02:32;101999.22;;;27.58;37.09
77725;BME280;66892;53.236;6.550;2023-06-10T08:04:58;101985.53;;;26.94;38.46
77725;BME280;66892;53.236;6.550;2023-06-10T08:07:24;101990.19;;;27.07;38.93
77725;BME280;66892;53.236;6.550;2023-06-10T08:09:52;102000.03;;;27.43;38.13
77725;BME280;66892;53.236;6.550;2023-06-10T08:12:18;101994.59;;;27.43;38.03
77725;BME280;66892;53.236;6.550;2023-06-10T08:14:44;101990.97;;;27.91;37.80
77725;BME280;66892;53.236;6.550;2023-06-10T08:17:10;101995.72;;;28.80;36.03
77725;BME280;66892;53.236;6.550;2023-06-10T08:19:36;101986.31;;;29.13;35.26
77725;BME280;66892;53.236;6.550;2023-06-10T08:22:03;101986.63;;;29.23;34.80
77725;BME280;66892;53.236;6.550;2023-06-10T08:24:29;101978.16;;;29.70;33.18
77725;BME280;66892;53.236;6.550;2023-06-10T08:26:56;101989.16;;;30.50;31.99
77725;BME280;66892;53.236;6.550;2023-06-10T08:29:23;101992.97;;;29.66;32.33
77725;BME280;66892;53.236;6.550;2023-06-10T08:31:49;101990.25;;;28.50;34.67
77725;BME280;66892;53.236;6.550;2023-06-10T08:34:15;101983.78;;;28.37;35.55
77725;BME280;66892;53.236;6.550;2023-06-10T08:36:42;101986.00;;;28.60;35.07
77725;BME280;66892;53.236;6.550;2023-06-10T08:39:08;101983.50;;;29.15;34.96
77725;BME280;66892;53.236;6.550;2023-06-10T08:41:37;101981.16;;;29.79;32.96
77725;BME280;66892;53.236;6.550;2023-06-10T08:44:10;101984.69;;;30.35;32.16
77725;BME280;66892;53.236;6.550;2023-06-10T08:46:38;101988.25;;;29.96;32.37
77725;BME280;66892;53.236;6.550;2023-06-10T08:49:07;101980.00;;;29.84;33.33
77725;BME280;66892;53.236;6.550;2023-06-10T08:51:35;101985.16;;;30.68;31.80
77725;BME280;66892;53.236;6.550;2023-06-10T08:54:05;101977.31;;;30.37;31.46
77725;BME280;66892;53.236;6.550;2023-06-10T08:56:39;101982.91;;;29.10;33.97
77725;BME280;66892;53.236;6.550;2023-06-10T08:59:05;101983.75;;;28.82;34.92
77725;BME280;66892;53.236;6.550;2023-06-10T09:01:33;101979.44;;;29.36;34.59
77725;BME280;66892;53.236;6.550;2023-06-10T09:04:00;101987.59;;;29.78;33.67
77725;BME280;66892;53.236;6.550;2023-06-10T09:06:26;101981.16;;;29.23;34.87
77725;BME280;66892;53.236;6.550;2023-06-10T09:08:53;101984.50;;;29.85;33.43
77725;BME280;66892;53.236;6.550;2023-06-10T09:11:19;101983.41;;;29.73;34.26
77725;BME280;66892;53.236;6.550;2023-06-10T09:13:45;101984.75;;;30.48;33.38
77725;BME280;66892;53.236;6.550;2023-06-10T09:16:11;101986.06;;;31.45;31.44
77725;BME280;66892;53.236;6.550;2023-06-10T09:18:40;101983.53;;;32.16;30.05
77725;BME280;66892;53.236;6.550;2023-06-10T09:21:06;101979.16;;;31.77;29.96
77725;BME280;66892;53.236;6.550;2023-06-10T09:23:32;101974.41;;;31.55;29.95
77725;BME280;66892;53.236;6.550;2023-06-10T09:25:58;101980.72;;;31.68;30.00
77725;BME280;66892;53.236;6.550;2023-06-10T09:28:24;101981.81;;;31.28;31.01
77725;BME280;66892;53.236;6.550;2023-06-10T09:31:02;101982.78;;;31.65;30.36
77725;BME280;66892;53.236;6.550;2023-06-10T09:33:28;101967.91;;;30.80;31.69
77725;BME280;66892;53.236;6.550;2023-06-10T09:35:55;101981.22;;;30.60;31.80
77725;BME280;66892;53.236;6.550;2023-06-10T09:38:30;101975.69;;;29.94;32.93
77725;BME280;66892;53.236;6.550;2023-06-10T09:40:57;101962.72;;;30.51;32.45
77725;BME280;66892;53.236;6.550;2023-06-10T09:43:23;101967.19;;;31.04;31.78
77725;BME280;66892;53.236;6.550;2023-06-10T09:46:03;101966.28;;;31.28;30.98
77725;BME280;66892;53.236;6.550;2023-06-10T09:48:29;101961.16;;;31.37;29.57
77725;BME280;66892;53.236;6.550;2023-06-10T09:50:57;101962.13;;;30.72;30.70
77725;BME280;66892;53.236;6.550;2023-06-10T09:53:23;101962.72;;;30.63;30.82
77725;BME280;66892;53.236;6.550;2023-06-10T09:55:49;101960.75;;;30.26;31.30
77725;BME280;66892;53.236;6.550;2023-06-10T09:58:17;101952.25;;;30.18;31.78
77725;BME280;66892;53.236;6.550;2023-06-10T10:00:44;101962.47;;;30.14;31.75
77725;BME280;66892;53.236;6.550;2023-06-10T10:03:22;101958.75;;;30.15;31.39
77725;BME280;66892;53.236;6.550;2023-06-10T10:05:48;101968.09;;;29.99;30.89
77725;BME280;66892;53.236;6.550;2023-06-10T10:08:15;101958.72;;;30.03;31.46
77725;BME280;66892;53.236;6.550;2023-06-10T10:10:41;101964.13;;;29.76;32.41
77725;BME280;66892;53.236;6.550;2023-06-10T10:13:07;101960.56;;;29.47;32.91
77725;BME280;66892;53.236;6.550;2023-06-10T10:15:33;101962.19;;;29.64;33.49
77725;BME280;66892;53.236;6.550;2023-06-10T10:18:06;101963.81;;;29.80;32.30
77725;BME280;66892;53.236;6.550;2023-06-10T10:20:35;101962.47;;;30.14;31.52
77725;BME280;66892;53.236;6.550;2023-06-10T10:23:04;101960.72;;;30.13;31.54
77725;BME280;66892;53.236;6.550;2023-06-10T10:25:37;101964.63;;;29.54;31.68
77725;BME280;66892;53.236;6.550;2023-06-10T10:28:08;101958.25;;;29.27;32.60
77725;BME280;66892;53.236;6.550;2023-06-10T10:30:38;101953.06;;;29.51;32.19
77725;BME280;66892;53.236;6.550;2023-06-10T10:33:09;101955.09;;;30.02;32.12
77725;BME280;66892;53.236;6.550;2023-06-10T10:35:38;101954.16;;;30.82;31.31
77725;BME280;66892;53.236;6.550;2023-06-10T10:38:06;101946.69;;;31.47;29.85
77725;BME280;66892;53.236;6.550;2023-06-10T10:40:34;101959.25;;;31.75;29.12
77725;BME280;66892;53.236;6.550;2023-06-10T10:43:01;101963.13;;;31.09;28.96
77725;BME280;66892;53.236;6.550;2023-06-10T10:45:28;101953.97;;;30.19;29.58
77725;BME280;66892;53.236;6.550;2023-06-10T10:47:55;101951.31;;;30.05;29.61
77725;BME280;66892;53.236;6.550;2023-06-10T10:50:22;101952.25;;;30.18;30.74
77725;BME280;66892;53.236;6.550;2023-06-10T10:52:56;101947.34;;;30.62;30.39
77725;BME280;66892;53.236;6.550;2023-06-10T10:55:24;101949.66;;;30.81;30.33
77725;BME280;66892;53.236;6.550;2023-06-10T10:57:56;101944.59;;;31.02;30.98
77725;BME280;66892;53.236;6.550;2023-06-10T11:00:30;101932.53;;;31.29;30.43
77725;BME280;66892;53.236;6.550;2023-06-10T11:02:58;101939.56;;;31.70;30.59
77725;BME280;66892;53.236;6.550;2023-06-10T11:05:32;101930.28;;;31.96;29.67
77725;BME280;66892;53.236;6.550;2023-06-10T11:08:01;101940.72;;;32.50;28.90
77725;BME280;66892;53.236;6.550;2023-06-10T11:10:30;101937.72;;;32.42;27.53
77725;BME280;66892;53.236;6.550;2023-06-10T11:12:58;101931.97;;;31.50;27.60
77725;BME280;66892;53.236;6.550;2023-06-10T11:15:26;101941.06;;;31.00;28.29
77725;BME280;66892;53.236;6.550;2023-06-10T11:18:12;101923.75;;;30.49;29.38
77725;BME280;66892;53.236;6.550;2023-06-10T11:20:45;101929.34;;;30.33;28.83
77725;BME280;66892;53.236;6.550;2023-06-10T11:23:39;101918.94;;;30.65;29.87
77725;BME280;66892;53.236;6.550;2023-06-10T11:26:11;101909.28;;;31.11;31.12
77725;BME280;66892;53.236;6.550;2023-06-10T11:28:39;101912.38;;;31.56;31.25
77725;BME280;66892;53.236;6.550;2023-06-10T11:31:05;101907.56;;;31.47;30.08
77725;BME280;66892;53.236;6.550;2023-06-10T11:33:31;101906.38;;;31.25;30.14
77725;BME280;66892;53.236;6.550;2023-06-10T11:35:58;101902.69;;;31.14;30.04
77725;BME280;66892;53.236;6.550;2023-06-10T11:38:24;101899.78;;;31.41;30.45
77725;BME280;66892;53.236;6.550;2023-06-10T11:40:50;101900.38;;;31.33;30.67
77725;BME280;66892;53.236;6.550;2023-06-10T11:43:17;101898.84;;;31.29;30.47
77725;BME280;66892;53.236;6.550;2023-06-10T11:45:45;101897.63;;;31.33;30.20
77725;BME280;66892;53.236;6.550;2023-06-10T11:48:12;101892.72;;;31.25;30.47
77725;BME280;66892;53.236;6.550;2023-06-10T11:50:38;101897.69;;;31.08;31.36
77725;BME280;66892;53.236;6.550;2023-06-10T11:53:04;101891.88;;;31.00;30.95
77725;BME280;66892;53.236;6.550;2023-06-10T11:55:41;101892.75;;;30.88;30.94
77725;BME280;66892;53.236;6.550;2023-06-10T11:58:12;101884.66;;;30.86;31.44
77725;BME280;66892;53.236;6.550;2023-06-10T12:00:45;101887.94;;;30.66;30.45
77725;BME280;66892;53.236;6.550;2023-06-10T12:03:11;101885.19;;;30.41;31.11
77725;BME280;66892;53.236;6.550;2023-06-10T12:05:37;101888.19;;;30.23;31.89
77725;BME280;66892;53.236;6.550;2023-06-10T12:08:11;101893.66;;;29.97;31.73
77725;BME280;66892;53.236;6.550;2023-06-10T12:10:41;101884.19;;;29.61;29.53
77725;BME280;66892;53.236;6.550;2023-06-10T12:13:08;101879.22;;;28.99;32.07
77725;BME280;66892;53.236;6.550;2023-06-10T12:15:35;101891.47;;;28.77;32.89
77725;BME280;66892;53.236;6.550;2023-06-10T12:18:02;101876.31;;;28.58;34.25
77725;BME280;66892;53.236;6.550;2023-06-10T12:20:29;101888.53;;;28.37;34.86
77725;BME280;66892;53.236;6.550;2023-06-10T12:22:57;101890.25;;;28.53;35.44
77725;BME280;66892;53.236;6.550;2023-06-10T12:25:27;101893.91;;;28.38;35.05
77725;BME280;66892;53.236;6.550;2023-06-10T12:27:55;101895.31;;;28.30;36.79
77725;BME280;66892;53.236;6.550;2023-06-10T12:30:23;101887.13;;;28.59;36.68
77725;BME280;66892;53.236;6.550;2023-06-10T12:32:50;101885.00;;;28.64;35.61
77725;BME280;66892;53.236;6.550;2023-06-10T12:35:21;101892.38;;;28.62;36.48
77725;BME280;66892;53.236;6.550;2023-06-10T12:37:57;101884.47;;;28.73;36.48
77725;BME280;66892;53.236;6.550;2023-06-10T12:40:26;101886.38;;;28.57;37.45
77725;BME280;66892;53.236;6.550;2023-06-10T12:42:54;101877.31;;;28.57;38.16
77725;BME280;66892;53.236;6.550;2023-06-10T12:45:26;101881.84;;;28.72;38.12
77725;BME280;66892;53.236;6.550;2023-06-10T12:48:04;101877.28;;;28.72;37.12
77725;BME280;66892;53.236;6.550;2023-06-10T12:50:32;101873.28;;;28.78;36.79